Baykal'sk, Russia
Current Conditions -  °F | °C
As of 7:00 AM on Thursday 23 Oct 2014 (Local Time) from UIII Reporting Station
Haze Haze  
Wind Chill: 30°   Ceiling: 1200
Heat Index: 30°   Visibility: 1.8mi
Dew Point: 28°   Wind: 2mph
Humidity: 93%   Direction: 50°NE
Pressure: 29.94"   Gusts: NA
Location:  51.55°N, 104.4°E
Report Text: UIII 222300Z 05001MPS 3000 BR OVC012 M01/M02 Q1014 NOSIG RMKQFE716/0954 30190055
Loading
Personal Weather Stations






























Interactive Weather Map
Tropical Storm Tracking
New forecast layout! Learn more

10-Day Weather Forecast

Advertisements
Track Severe Weather on mobile